Terminal Aerodrome Forecast
Issued by NWS La Crosse, WI

Home | Current Version | Previous Version | Text Only | Print | Product List | Glossary On
Versions: 1 2 3 4 5 6 7 8 9 10 11 12 13 14 15 16 17 18 19 20 21 22 23 24 25 26
000
FTUS43 KARX 211909 AAA
TAFLSE
TAF AMD
KLSE 211909Z 2119/2218 13005KT 1SM BR OVC006
      TEMPO 2119/2122 1/4SM FG OVC003
     FM212300 VRB03KT 4SM BR OVC008
     FM220300 00000KT 2SM BR OVC006=

USA.gov is the U.S. government's official web portal to all federal, state and local government web resources and services.